Time;durP1;ratioP1;P1;durP2;ratioP2;P2;SDS_P1;SDS_P2;PMS_P1;PMS_P2;Temp;Humidity;BMP_temperature;BMP_pressure;BME280_temperature;BME280_humidity;BME280_pressure;Samples;Min_cycle;Max_cycle;Signal;HPM_P1;HPM_P2
2021/04/24 00:01:08;;;;;;;1.92;1.70;;;12.10;87.10;;;;;;5090168;28;20197;-71
2021/04/24 00:03:34;;;;;;;3.75;2.10;;;12.10;87.20;;;;;;5100208;28;20545;-70
2021/04/24 00:06:00;;;;;;;6.85;2.03;;;12.10;87.10;;;;;;5109826;28;20192;-70
2021/04/24 00:08:27;;;;;;;2.85;2.40;;;12.10;87.10;;;;;;5108611;28;20336;-71
2021/04/24 00:10:53;;;;;;;2.20;1.63;;;12.10;87.20;;;;;;5112352;28;20197;-71
2021/04/24 00:13:20;;;;;;;3.10;2.53;;;12.10;87.10;;;;;;5111050;28;20280;-71
2021/04/24 00:15:47;;;;;;;2.88;2.55;;;12.00;87.10;;;;;;5102590;28;20201;-71
2021/04/24 00:18:14;;;;;;;2.25;1.73;;;12.00;87.20;;;;;;5113030;28;20185;-70
2021/04/24 00:20:41;;;;;;;2.90;1.60;;;12.00;87.10;;;;;;5114498;28;20265;-71
2021/04/24 00:23:08;;;;;;;2.75;1.60;;;12.00;87.10;;;;;;5109233;28;20263;-71
2021/04/24 00:25:34;;;;;;;4.28;1.92;;;12.00;87.20;;;;;;5114024;28;20200;-70
2021/04/24 00:28:00;;;;;;;2.03;1.80;;;12.00;87.00;;;;;;5113981;28;20556;-71
2021/04/24 00:30:27;;;;;;;3.55;1.75;;;11.90;86.70;;;;;;5107996;28;20209;-71
2021/04/24 00:32:54;;;;;;;1.75;1.50;;;11.90;86.80;;;;;;5111726;28;20197;-71
2021/04/24 00:35:21;;;;;;;2.00;1.60;;;11.90;86.80;;;;;;5113771;28;20637;-70
2021/04/24 00:37:48;;;;;;;2.65;1.90;;;11.90;86.60;;;;;;5113624;28;20200;-70
2021/04/24 00:40:17;;;;;;;2.80;1.80;;;11.90;86.70;;;;;;5102401;28;20246;-70
2021/04/24 00:42:44;;;;;;;2.50;1.60;;;11.90;86.60;;;;;;5095974;28;20215;-70
2021/04/24 00:45:13;;;;;;;6.30;2.10;;;11.80;86.30;;;;;;5109716;28;20217;-70
2021/04/24 00:47:39;;;;;;;2.75;1.67;;;11.80;86.30;;;;;;5103520;28;20205;-70
2021/04/24 00:50:09;;;;;;;2.05;1.60;;;11.80;86.30;;;;;;5113885;28;20196;-70
2021/04/24 00:52:36;;;;;;;2.58;1.90;;;11.80;86.30;;;;;;5113170;28;20275;-72
2021/04/24 00:55:03;;;;;;;1.65;1.40;;;11.80;86.40;;;;;;5111913;28;20189;-70
2021/04/24 00:57:30;;;;;;;2.97;1.55;;;11.70;86.30;;;;;;5110511;28;20574;-71
2021/04/24 00:59:57;;;;;;;2.72;1.50;;;11.70;86.30;;;;;;5111855;28;20197;-70
2021/04/24 01:02:23;;;;;;;1.88;1.65;;;11.70;86.20;;;;;;5113473;28;20574;-71
2021/04/24 01:04:49;;;;;;;3.10;1.95;;;11.70;86.20;;;;;;5111587;28;20216;-71
2021/04/24 01:07:16;;;;;;;2.80;2.50;;;11.70;86.30;;;;;;5111163;28;20629;-70
2021/04/24 01:09:43;;;;;;;3.35;2.35;;;11.70;86.30;;;;;;5111582;28;20629;-71
2021/04/24 01:12:09;;;;;;;1.65;1.42;;;11.70;86.30;;;;;;5111695;28;20193;-71
2021/04/24 01:14:36;;;;;;;1.63;1.40;;;11.60;86.30;;;;;;5113030;28;20569;-71
2021/04/24 01:17:02;;;;;;;2.20;2.00;;;11.60;86.40;;;;;;5111558;28;20207;-71
2021/04/24 01:19:29;;;;;;;2.67;1.83;;;11.60;86.40;;;;;;5113132;28;20208;-70
2021/04/24 01:22:04;;;;;;;2.25;1.70;;;11.60;86.40;;;;;;5108806;28;20204;-70
2021/04/24 01:24:30;;;;;;;4.43;1.80;;;11.60;86.50;;;;;;5111006;28;20285;-70
2021/04/24 01:26:57;;;;;;;2.60;1.90;;;11.50;86.50;;;;;;5113194;28;20204;-70
2021/04/24 01:29:23;;;;;;;1.92;1.40;;;11.50;86.70;;;;;;5112799;28;20242;-70
2021/04/24 01:31:50;;;;;;;2.60;1.40;;;11.50;86.80;;;;;;5112739;28;20246;-71
2021/04/24 01:34:17;;;;;;;3.28;1.98;;;11.50;86.90;;;;;;5107584;28;20197;-71
2021/04/24 01:36:43;;;;;;;2.95;1.63;;;11.50;86.90;;;;;;5112907;28;20203;-71
2021/04/24 01:39:10;;;;;;;1.70;1.20;;;11.50;87.00;;;;;;5102080;28;20518;-71
2021/04/24 01:41:36;;;;;;;4.15;1.58;;;11.40;87.00;;;;;;5107575;28;20656;-71
2021/04/24 01:44:03;;;;;;;2.60;1.70;;;11.40;87.10;;;;;;5104108;28;20225;-71
2021/04/24 01:46:29;;;;;;;4.95;2.67;;;11.40;87.40;;;;;;5092208;28;20201;-70
2021/04/24 01:48:55;;;;;;;2.00;1.65;;;11.40;87.60;;;;;;5109469;28;20188;-70
2021/04/24 01:51:21;;;;;;;2.22;1.50;;;11.40;87.80;;;;;;5095858;28;20202;-70
2021/04/24 01:53:48;;;;;;;2.00;1.50;;;11.40;87.80;;;;;;5101777;28;20193;-70
2021/04/24 01:56:16;;;;;;;2.75;1.70;;;11.40;87.70;;;;;;5109807;28;20193;-70
2021/04/24 01:58:42;;;;;;;2.55;1.77;;;11.40;87.60;;;;;;5101699;28;20308;-70
2021/04/24 02:01:12;;;;;;;2.17;1.95;;;11.30;87.90;;;;;;5109496;28;20189;-70
2021/04/24 02:03:38;;;;;;;2.55;2.00;;;11.20;87.80;;;;;;5103910;28;20244;-70
2021/04/24 02:06:05;;;;;;;2.92;1.80;;;11.30;88.00;;;;;;5111907;28;20522;-70
2021/04/24 02:08:35;;;;;;;2.55;1.98;;;11.30;88.10;;;;;;5108010;28;20576;-70
2021/04/24 02:11:02;;;;;;;1.65;1.50;;;11.20;88.10;;;;;;5091812;28;20201;-70
2021/04/24 02:13:33;;;;;;;2.35;1.90;;;11.20;88.00;;;;;;5102642;28;20242;-70
2021/04/24 02:15:59;;;;;;;1.70;1.52;;;11.20;87.90;;;;;;5111740;28;20200;-70
2021/04/24 02:18:26;;;;;;;2.50;1.73;;;11.20;87.90;;;;;;5097700;28;20669;-70
2021/04/24 02:20:53;;;;;;;2.88;2.35;;;11.20;88.00;;;;;;5091124;28;20278;-70
2021/04/24 02:23:20;;;;;;;2.00;1.73;;;11.20;88.20;;;;;;5096717;28;20237;-70
2021/04/24 02:25:47;;;;;;;2.05;1.90;;;11.20;88.20;;;;;;5111914;28;20197;-70
2021/04/24 02:28:14;;;;;;;3.92;2.00;;;11.20;88.20;;;;;;5110205;28;20212;-71
2021/04/24 02:30:42;;;;;;;1.73;1.52;;;11.10;88.10;;;;;;5105117;28;20200;-71
2021/04/24 02:33:09;;;;;;;3.70;2.22;;;11.10;88.00;;;;;;5093920;28;20185;-70
2021/04/24 02:35:43;;;;;;;1.92;1.70;;;11.10;88.30;;;;;;5111437;28;20571;-70
2021/04/24 02:38:09;;;;;;;2.05;1.45;;;11.10;88.30;;;;;;5100459;28;20196;-70
2021/04/24 02:40:35;;;;;;;2.20;1.73;;;11.10;88.30;;;;;;5111651;28;20192;-69
2021/04/24 02:43:02;;;;;;;2.30;2.10;;;11.10;88.30;;;;;;5111612;28;20196;-69
2021/04/24 02:45:28;;;;;;;2.10;1.67;;;11.10;88.30;;;;;;5106684;28;20193;-70
2021/04/24 02:47:55;;;;;;;3.45;1.70;;;11.10;88.30;;;;;;5091770;28;20205;-70
2021/04/24 02:50:22;;;;;;;2.70;1.83;;;11.00;89.10;;;;;;5102805;28;20246;-69
2021/04/24 02:52:48;;;;;;;2.28;1.65;;;11.00;88.20;;;;;;5091302;28;20193;-70
2021/04/24 02:55:16;;;;;;;4.03;1.98;;;11.00;88.50;;;;;;5111337;28;20196;-69
2021/04/24 02:57:42;;;;;;;2.95;2.00;;;11.00;88.70;;;;;;5111313;28;20201;-70
2021/04/24 03:00:12;;;;;;;3.88;2.20;;;11.00;88.80;;;;;;5093386;28;20201;-70
2021/04/24 03:02:38;;;;;;;2.47;1.63;;;10.90;89.20;;;;;;5105534;28;20197;-70
2021/04/24 03:05:10;;;;;;;7.45;2.20;;;11.00;89.20;;;;;;5100680;28;20224;-70
2021/04/24 03:07:36;;;;;;;3.80;2.25;;;10.90;89.00;;;;;;5108755;28;20253;-71
2021/04/24 03:10:04;;;;;;;2.15;1.95;;;10.90;88.80;;;;;;5099713;28;20205;-70
2021/04/24 03:12:30;;;;;;;2.33;1.65;;;10.90;88.90;;;;;;5102061;28;20193;-70
2021/04/24 03:14:57;;;;;;;2.83;2.45;;;10.90;88.90;;;;;;5110714;28;20197;-71
2021/04/24 03:17:23;;;;;;;2.78;1.70;;;10.90;89.00;;;;;;5107334;28;20254;-70
2021/04/24 03:19:50;;;;;;;1.73;1.58;;;10.90;89.10;;;;;;5090777;28;20197;-70
2021/04/24 03:22:17;;;;;;;3.08;1.95;;;10.80;89.00;;;;;;5098216;28;20263;-70
2021/04/24 03:24:43;;;;;;;4.35;1.98;;;10.80;89.20;;;;;;5093694;28;20256;-70
2021/04/24 03:27:09;;;;;;;2.60;2.40;;;10.80;89.20;;;;;;5095338;28;20196;-70
2021/04/24 03:29:36;;;;;;;4.35;2.47;;;10.80;89.30;;;;;;5110790;28;20649;-70
2021/04/24 03:32:02;;;;;;;3.08;2.08;;;10.70;89.60;;;;;;5099975;28;20208;-70
2021/04/24 03:34:28;;;;;;;5.00;2.78;;;10.70;89.50;;;;;;5090632;28;20201;-70
2021/04/24 03:36:55;;;;;;;2.30;1.90;;;10.70;89.70;;;;;;5090677;28;20205;-70
2021/04/24 03:39:22;;;;;;;3.53;2.60;;;10.70;89.80;;;;;;5106314;28;20197;-70
2021/04/24 03:41:48;;;;;;;5.68;2.15;;;10.70;89.70;;;;;;5100301;28;20228;-70
2021/04/24 03:44:14;;;;;;;3.30;2.70;;;10.70;89.80;;;;;;5110521;28;20209;-70
2021/04/24 03:46:40;;;;;;;2.60;1.95;;;10.70;89.70;;;;;;5115555;28;20193;-70
2021/04/24 03:49:06;;;;;;;3.58;2.70;;;10.70;89.70;;;;;;5109272;28;20201;-70
2021/04/24 03:51:33;;;;;;;5.20;2.30;;;10.60;89.90;;;;;;5113604;28;20208;-70
2021/04/24 03:53:59;;;;;;;2.53;2.30;;;10.60;90.00;;;;;;5114234;28;20226;-69
2021/04/24 03:56:26;;;;;;;3.17;1.70;;;10.60;90.10;;;;;;5099267;28;20197;-70
2021/04/24 03:58:52;;;;;;;3.42;2.30;;;10.60;90.00;;;;;;5104110;28;20227;-70
2021/04/24 04:01:18;;;;;;;2.75;1.90;;;10.60;90.10;;;;;;5113434;28;20193;-70
2021/04/24 04:03:44;;;;;;;2.90;1.92;;;10.60;90.20;;;;;;5114254;28;20209;-71
2021/04/24 04:06:11;;;;;;;3.10;2.28;;;10.50;90.00;;;;;;5113913;28;20242;-71
2021/04/24 04:08:37;;;;;;;2.30;2.10;;;10.50;90.20;;;;;;5113223;28;20243;-70
2021/04/24 04:11:03;;;;;;;6.78;2.22;;;10.50;90.20;;;;;;5114592;28;20201;-70
2021/04/24 04:13:30;;;;;;;2.40;2.20;;;10.50;90.20;;;;;;5113313;28;20203;-70
2021/04/24 04:15:57;;;;;;;2.25;2.05;;;10.50;90.20;;;;;;5101953;28;20894;-71
2021/04/24 04:18:23;;;;;;;3.97;2.47;;;10.50;90.30;;;;;;5113425;28;20212;-70
2021/04/24 04:20:52;;;;;;;4.82;2.83;;;10.50;90.20;;;;;;5114616;28;20201;-70
2021/04/24 04:23:18;;;;;;;4.25;2.78;;;10.40;90.30;;;;;;5112666;28;20845;-70
2021/04/24 04:25:45;;;;;;;2.90;2.38;;;10.50;90.30;;;;;;5113862;28;20560;-71
2021/04/24 04:28:12;;;;;;;2.25;1.90;;;10.50;90.30;;;;;;5103842;28;20201;-70
2021/04/24 04:30:40;;;;;;;2.28;2.03;;;10.50;90.20;;;;;;5103627;28;20196;-70
2021/04/24 04:33:08;;;;;;;5.75;3.05;;;10.50;90.20;;;;;;5106077;28;20208;-71
2021/04/24 04:35:35;;;;;;;2.95;2.30;;;10.50;90.20;;;;;;5095134;28;20204;-71
2021/04/24 04:38:02;;;;;;;5.00;2.38;;;10.50;90.20;;;;;;5093951;28;20197;-70
2021/04/24 04:40:28;;;;;;;6.25;2.47;;;10.40;90.30;;;;;;5095936;28;20217;-70
2021/04/24 04:42:55;;;;;;;3.38;2.72;;;10.40;90.20;;;;;;5110011;28;20278;-70
2021/04/24 04:45:22;;;;;;;4.40;2.75;;;10.50;90.30;;;;;;5093329;28;20668;-70
2021/04/24 04:47:49;;;;;;;3.20;2.80;;;10.50;90.20;;;;;;5112715;28;20193;-71
2021/04/24 04:50:17;;;;;;;3.58;2.72;;;10.40;90.60;;;;;;5110070;28;20643;-71
2021/04/24 04:52:44;;;;;;;4.20;2.13;;;10.40;90.40;;;;;;5113708;28;20282;-70
2021/04/24 04:55:11;;;;;;;5.20;2.53;;;10.40;90.40;;;;;;5099037;28;20629;-70
2021/04/24 04:57:38;;;;;;;3.75;2.60;;;10.40;90.50;;;;;;5111846;28;20200;-70
2021/04/24 05:00:06;;;;;;;2.47;2.00;;;10.30;90.50;;;;;;5113519;28;20236;-70
2021/04/24 05:02:32;;;;;;;3.40;2.60;;;10.30;90.50;;;;;;5098529;28;20213;-70
2021/04/24 05:05:00;;;;;;;2.47;1.92;;;10.30;90.60;;;;;;5093938;28;20672;-70
2021/04/24 05:07:26;;;;;;;3.33;2.75;;;10.30;90.70;;;;;;5110236;28;20196;-70
2021/04/24 05:09:52;;;;;;;2.65;1.98;;;10.30;90.60;;;;;;5113487;28;20196;-71
2021/04/24 05:12:18;;;;;;;3.33;3.03;;;10.30;90.70;;;;;;5099155;28;20205;-70
2021/04/24 05:14:44;;;;;;;3.40;2.70;;;10.30;90.80;;;;;;5099104;28;20192;-70
2021/04/24 05:17:11;;;;;;;3.50;2.80;;;10.20;90.80;;;;;;5111223;28;20250;-70
2021/04/24 05:19:37;;;;;;;6.70;3.42;;;10.20;90.80;;;;;;5092776;28;20193;-70
2021/04/24 05:22:04;;;;;;;2.63;2.20;;;10.30;90.80;;;;;;5098023;28;20257;-70
2021/04/24 05:24:31;;;;;;;3.28;2.65;;;10.30;90.70;;;;;;5108780;28;20229;-70
2021/04/24 05:26:57;;;;;;;2.85;2.60;;;10.20;90.80;;;;;;5111227;28;20197;-71
2021/04/24 05:29:24;;;;;;;3.28;2.97;;;10.20;90.80;;;;;;5107906;28;20220;-71
2021/04/24 05:31:50;;;;;;;3.53;2.60;;;10.30;90.80;;;;;;5112706;28;20197;-71
2021/04/24 05:34:16;;;;;;;6.10;2.50;;;10.30;90.90;;;;;;5111438;28;20215;-71
2021/04/24 05:36:43;;;;;;;4.63;2.80;;;10.30;90.80;;;;;;5112527;28;20208;-69
2021/04/24 05:39:10;;;;;;;3.70;2.65;;;10.30;90.70;;;;;;5112230;28;20207;-69
2021/04/24 05:41:37;;;;;;;4.95;2.78;;;10.40;90.30;;;;;;5109967;28;20197;-69
2021/04/24 05:44:04;;;;;;;3.70;3.40;;;10.60;89.80;;;;;;5112799;28;20266;-68
2021/04/24 05:46:30;;;;;;;3.47;2.60;;;10.70;88.90;;;;;;5112631;28;20192;-69
2021/04/24 05:48:57;;;;;;;4.80;2.88;;;10.90;87.90;;;;;;5100929;28;20202;-70
2021/04/24 05:51:24;;;;;;;4.63;3.22;;;11.10;87.10;;;;;;5097877;28;20250;-69
2021/04/24 05:57:13;;;;;;;3.88;2.88;;;11.40;85.30;;;;;;5096988;28;20529;-69
2021/04/24 05:59:39;;;;;;;4.97;3.10;;;11.60;84.30;;;;;;5109560;28;20202;-69
2021/04/24 06:02:06;;;;;;;4.53;3.67;;;11.70;83.70;;;;;;5103442;27;20198;-69
2021/04/24 06:04:32;;;;;;;6.10;2.80;;;11.80;83.00;;;;;;5107525;28;20274;-69
2021/04/24 06:07:00;;;;;;;3.80;3.40;;;11.90;82.80;;;;;;5106576;28;20208;-68
2021/04/24 06:09:26;;;;;;;5.63;3.40;;;11.90;82.30;;;;;;5106121;28;20640;-69
2021/04/24 06:11:52;;;;;;;4.05;3.05;;;12.00;82.20;;;;;;5099866;28;20200;-69
2021/04/24 06:14:20;;;;;;;3.55;3.22;;;12.00;82.10;;;;;;5109047;28;20193;-68
2021/04/24 06:16:46;;;;;;;3.92;2.70;;;12.10;82.00;;;;;;5112194;28;20227;-69
2021/04/24 06:19:12;;;;;;;3.97;3.00;;;12.10;81.80;;;;;;5099578;28;20198;-71
2021/04/24 06:21:39;;;;;;;5.38;3.17;;;12.10;81.70;;;;;;5111047;28;21961;-69
2021/04/24 06:24:06;;;;;;;6.82;3.42;;;12.10;81.80;;;;;;5104201;28;20260;-70
2021/04/24 06:26:32;;;;;;;5.53;3.55;;;12.20;81.90;;;;;;5111588;27;20200;-69
2021/04/24 06:28:58;;;;;;;6.43;3.78;;;12.20;81.80;;;;;;5097070;28;20197;-68
2021/04/24 06:31:25;;;;;;;8.13;3.60;;;12.30;82.00;;;;;;5095894;28;20193;-70
2021/04/24 06:33:51;;;;;;;5.90;4.55;;;12.40;81.80;;;;;;5106413;27;20209;-69
2021/04/24 06:36:18;;;;;;;5.93;3.42;;;12.50;81.50;;;;;;5107964;28;20216;-70
2021/04/24 06:38:44;;;;;;;4.68;3.50;;;12.50;81.20;;;;;;5111669;28;20203;-70
2021/04/24 06:41:10;;;;;;;4.68;3.00;;;12.60;80.90;;;;;;5111643;28;20287;-68
2021/04/24 06:43:36;;;;;;;4.55;3.10;;;12.70;80.70;;;;;;5092917;28;20213;-69
2021/04/24 06:46:03;;;;;;;4.40;3.05;;;12.80;80.50;;;;;;5098476;28;20246;-69
2021/04/24 06:48:30;;;;;;;5.28;3.35;;;12.90;80.10;;;;;;5110703;28;20189;-69
2021/04/24 06:50:58;;;;;;;4.40;3.15;;;13.00;79.80;;;;;;5108754;28;20206;-69
2021/04/24 06:53:26;;;;;;;3.35;2.92;;;13.20;79.30;;;;;;5110401;28;20578;-70
2021/04/24 06:55:54;;;;;;;6.53;3.35;;;13.30;79.10;;;;;;5104324;28;20201;-70
2021/04/24 06:58:20;;;;;;;3.25;2.85;;;13.40;78.80;;;;;;5104138;28;20620;-70
2021/04/24 07:00:47;;;;;;;4.32;3.63;;;13.40;78.60;;;;;;5104005;28;20205;-70
2021/04/24 07:03:13;;;;;;;4.90;3.30;;;13.50;78.70;;;;;;5096954;28;20193;-69
2021/04/24 07:05:40;;;;;;;4.70;3.47;;;13.50;79.10;;;;;;5107575;28;20216;-70
2021/04/24 07:08:06;;;;;;;6.05;3.17;;;13.60;79.00;;;;;;5110676;28;20587;-70
2021/04/24 07:10:32;;;;;;;5.00;2.70;;;13.60;78.70;;;;;;5109275;28;20594;-70
2021/04/24 07:12:58;;;;;;;3.72;3.00;;;13.60;78.70;;;;;;5110200;28;20204;-70
2021/04/24 07:15:25;;;;;;;4.70;3.45;;;13.60;78.70;;;;;;5107330;28;20189;-70
2021/04/24 07:17:51;;;;;;;5.97;2.50;;;13.60;79.00;;;;;;5109530;28;20208;-70
2021/04/24 07:20:18;;;;;;;4.05;3.20;;;13.50;79.00;;;;;;5109126;28;20201;-70
2021/04/24 07:22:45;;;;;;;5.05;3.20;;;13.60;79.40;;;;;;5108695;28;20255;-69
2021/04/24 07:25:13;;;;;;;3.50;3.10;;;13.50;79.40;;;;;;5106145;28;20212;-71
2021/04/24 07:27:39;;;;;;;5.13;2.80;;;13.60;79.70;;;;;;5109929;28;20192;-69
2021/04/24 07:30:07;;;;;;;6.07;3.28;;;13.60;79.60;;;;;;5110362;28;20197;-69
2021/04/24 07:32:33;;;;;;;5.13;3.33;;;13.60;79.60;;;;;;5108338;28;20208;-69
2021/04/24 07:35:01;;;;;;;3.88;3.20;;;13.60;79.70;;;;;;5110015;28;20204;-69
2021/04/24 07:37:27;;;;;;;4.10;2.85;;;13.50;80.00;;;;;;5108677;28;20236;-69
2021/04/24 07:39:54;;;;;;;4.35;2.83;;;13.50;80.40;;;;;;5102770;28;20200;-69
2021/04/24 07:42:20;;;;;;;5.20;3.05;;;13.50;80.40;;;;;;5105023;28;20580;-69
2021/04/24 07:44:46;;;;;;;3.95;2.95;;;13.50;80.40;;;;;;5107179;28;20213;-69
2021/04/24 07:47:13;;;;;;;6.50;2.80;;;13.70;80.50;;;;;;5097641;28;20729;-69
2021/04/24 07:49:39;;;;;;;4.75;2.72;;;13.80;79.60;;;;;;5090416;28;20193;-69
2021/04/24 07:52:08;;;;;;;3.78;3.05;;;13.90;79.00;;;;;;5097515;28;20194;-69
2021/04/24 07:54:35;;;;;;;4.07;3.10;;;14.00;78.20;;;;;;5090683;28;20530;-69
2021/04/24 07:57:03;;;;;;;2.78;2.25;;;13.90;77.90;;;;;;5110331;28;20757;-69
2021/04/24 07:59:29;;;;;;;2.47;2.28;;;13.80;78.20;;;;;;5110052;28;20216;-70
2021/04/24 08:01:56;;;;;;;5.30;3.22;;;13.70;78.80;;;;;;5101577;28;20222;-69
2021/04/24 08:04:22;;;;;;;8.77;2.97;;;13.60;77.80;;;;;;5104587;28;20208;-69
2021/04/24 08:06:49;;;;;;;3.45;2.63;;;13.70;78.10;;;;;;5110225;28;20219;-69
2021/04/24 08:09:15;;;;;;;3.30;2.20;;;13.60;78.70;;;;;;5109428;28;20253;-69
2021/04/24 08:11:41;;;;;;;2.75;2.38;;;13.70;79.00;;;;;;5109067;28;20197;-69
2021/04/24 08:14:08;;;;;;;2.60;2.20;;;13.80;78.80;;;;;;5109575;28;20200;-69
2021/04/24 08:16:35;;;;;;;2.42;2.10;;;13.90;78.20;;;;;;5099021;28;20205;-70
2021/04/24 08:19:01;;;;;;;4.57;2.05;;;14.00;77.50;;;;;;5101252;28;20697;-69
2021/04/24 08:21:30;;;;;;;2.53;2.22;;;14.10;77.90;;;;;;5090161;28;20585;-70
2021/04/24 08:23:59;;;;;;;3.15;2.15;;;14.20;77.20;;;;;;5108863;28;20217;-69
2021/04/24 08:26:26;;;;;;;2.40;2.20;;;14.30;76.40;;;;;;5103228;28;20931;-69
2021/04/24 08:28:52;;;;;;;2.95;2.20;;;14.50;75.70;;;;;;5110030;28;20197;-69
2021/04/24 08:31:19;;;;;;;4.07;2.60;;;14.60;75.40;;;;;;5111946;28;20201;-68
2021/04/24 08:33:45;;;;;;;1.88;1.60;;;14.70;74.70;;;;;;5108504;28;20201;-68
2021/04/24 08:36:12;;;;;;;4.07;1.83;;;14.80;74.20;;;;;;5112796;27;20191;-69
2021/04/24 08:38:39;;;;;;;3.70;2.22;;;14.80;73.30;;;;;;5121984;27;20270;-68
2021/04/24 08:41:06;;;;;;;2.47;1.92;;;14.90;73.80;;;;;;5113315;28;20197;-70
2021/04/24 08:43:35;;;;;;;5.05;2.15;;;14.90;73.60;;;;;;5113947;28;20193;-68
2021/04/24 08:46:02;;;;;;;5.15;1.75;;;14.90;72.00;;;;;;5116420;27;20184;-68
2021/04/24 08:48:29;;;;;;;3.15;2.70;;;14.80;70.70;;;;;;5113232;28;20247;-68
2021/04/24 08:50:56;;;;;;;3.85;1.65;;;14.80;72.10;;;;;;5113653;28;20211;-69
2021/04/24 08:53:23;;;;;;;3.97;2.20;;;14.80;71.40;;;;;;5117482;27;20193;-69
2021/04/24 08:55:50;;;;;;;1.92;1.48;;;14.90;72.20;;;;;;5109879;28;20197;-69
2021/04/24 08:58:17;;;;;;;3.03;1.90;;;14.90;72.00;;;;;;5111218;28;20200;-68
2021/04/24 09:00:47;;;;;;;3.90;2.20;;;14.90;70.80;;;;;;5096771;28;20517;-69
2021/04/24 09:03:18;;;;;;;5.22;2.30;;;15.00;71.20;;;;;;5113113;28;20201;-69
2021/04/24 09:05:46;;;;;;;2.95;1.88;;;15.00;71.40;;;;;;5125897;27;20204;-69
2021/04/24 09:08:12;;;;;;;2.50;2.05;;;15.00;71.40;;;;;;5096416;28;20224;-69
2021/04/24 09:10:42;;;;;;;2.50;1.92;;;15.00;71.80;;;;;;5094884;28;20223;-70
2021/04/24 09:13:09;;;;;;;3.25;1.90;;;15.00;71.40;;;;;;5098258;28;20545;-67
2021/04/24 09:15:36;;;;;;;1.52;1.40;;;15.10;70.70;;;;;;5096066;28;20888;-69
2021/04/24 09:18:05;;;;;;;2.60;2.00;;;15.10;71.30;;;;;;5112089;28;20564;-70
2021/04/24 09:20:33;;;;;;;2.10;1.88;;;15.00;69.90;;;;;;5112976;28;20185;-69
2021/04/24 09:23:05;;;;;;;2.47;2.05;;;15.00;71.00;;;;;;5112483;28;20231;-69
2021/04/24 09:25:41;;;;;;;1.90;1.70;;;15.00;70.70;;;;;;5111264;28;20262;-69
2021/04/24 09:28:10;;;;;;;2.53;1.80;;;15.00;71.00;;;;;;5113029;28;20192;-70
2021/04/24 09:30:39;;;;;;;1.95;1.63;;;15.00;71.30;;;;;;5112134;28;20226;-71
2021/04/24 09:33:08;;;;;;;2.90;1.65;;;15.00;72.40;;;;;;5103274;28;20654;-68
2021/04/24 09:35:44;;;;;;;3.63;2.03;;;15.00;71.10;;;;;;5112992;28;20193;-70
2021/04/24 09:38:17;;;;;;;2.00;1.80;;;14.90;71.40;;;;;;5112261;28;20205;-68
2021/04/24 09:40:43;;;;;;;5.82;2.03;;;14.90;72.00;;;;;;5108818;28;20208;-70
2021/04/24 09:43:09;;;;;;;2.97;1.60;;;14.90;72.50;;;;;;5111072;28;20203;-70
2021/04/24 09:45:39;;;;;;;2.58;1.40;;;14.90;72.60;;;;;;5110080;28;20212;-70
2021/04/24 09:48:19;;;;;;;2.72;1.77;;;14.80;72.80;;;;;;5111107;28;20636;-69
2021/04/24 09:50:45;;;;;;;1.60;1.50;;;14.80;73.20;;;;;;5112903;28;20772;-69
2021/04/24 09:53:18;;;;;;;3.08;1.90;;;14.80;73.30;;;;;;5112089;28;20226;-70
2021/04/24 09:55:45;;;;;;;3.60;2.05;;;14.80;73.20;;;;;;5110798;28;20207;-70
2021/04/24 09:58:26;;;;;;;3.70;2.22;;;14.80;72.80;;;;;;5113004;28;20185;-70
2021/04/24 10:00:53;;;;;;;2.25;2.05;;;14.70;72.30;;;;;;5099838;28;20201;-69
2021/04/24 10:03:36;;;;;;;3.22;2.35;;;14.70;72.20;;;;;;5108094;28;20197;-69
2021/04/24 10:06:29;;;;;;;2.65;2.20;;;14.60;71.60;;;;;;5111524;28;20242;-70
2021/04/24 10:09:16;;;;;;;3.63;2.45;;;14.60;72.70;;;;;;5105580;28;20204;-71
2021/04/24 10:11:44;;;;;;;3.45;2.13;;;14.60;71.70;;;;;;5111510;28;20197;-71
2021/04/24 10:14:11;;;;;;;6.47;2.60;;;14.60;71.60;;;;;;5112111;28;20189;-70
2021/04/24 10:16:42;;;;;;;3.30;2.10;;;14.70;71.70;;;;;;5108734;28;20292;-71
2021/04/24 10:19:12;;;;;;;2.58;2.38;;;14.70;72.90;;;;;;5111779;28;20201;-71
2021/04/24 10:21:38;;;;;;;3.38;2.15;;;14.60;72.60;;;;;;5111339;28;20224;-69
2021/04/24 10:24:06;;;;;;;4.28;2.30;;;14.60;72.60;;;;;;5103018;28;20230;-70
2021/04/24 10:26:34;;;;;;;2.35;2.15;;;14.70;73.20;;;;;;5110423;28;20189;-70
2021/04/24 10:29:03;;;;;;;2.55;2.00;;;14.70;73.40;;;;;;5106513;28;20216;-70
2021/04/24 10:31:30;;;;;;;2.95;2.20;;;14.70;72.60;;;;;;5111887;28;20200;-71
2021/04/24 10:33:58;;;;;;;3.90;2.50;;;14.80;72.00;;;;;;5107637;28;20238;-70
2021/04/24 10:36:25;;;;;;;2.30;2.08;;;14.80;72.70;;;;;;5107856;28;20203;-70
2021/04/24 10:38:52;;;;;;;2.70;1.98;;;14.80;72.10;;;;;;5108307;28;20201;-70
2021/04/24 10:41:27;;;;;;;4.00;2.80;;;14.80;72.60;;;;;;5091386;28;20223;-70
2021/04/24 10:43:59;;;;;;;2.45;1.90;;;14.80;73.00;;;;;;5091263;28;20695;-70
2021/04/24 10:46:31;;;;;;;4.95;3.08;;;14.80;73.30;;;;;;5108001;28;20196;-70
2021/04/24 10:49:20;;;;;;;5.00;2.55;;;14.80;73.20;;;;;;5107651;28;20202;-70
2021/04/24 10:51:51;;;;;;;4.50;2.60;;;14.80;72.20;;;;;;5100067;27;20193;-70
2021/04/24 10:54:17;;;;;;;3.78;2.90;;;14.80;72.20;;;;;;5108801;28;20193;-70
2021/04/24 10:56:43;;;;;;;2.88;2.20;;;14.80;72.20;;;;;;5111022;28;20197;-70
2021/04/24 10:59:19;;;;;;;8.30;2.15;;;14.80;73.30;;;;;;5099855;28;20197;-70
2021/04/24 11:02:07;;;;;;;3.95;2.78;;;14.80;72.30;;;;;;5099478;28;20695;-70
2021/04/24 11:04:48;;;;;;;4.55;3.38;;;14.70;71.00;;;;;;5097274;27;20213;-70
2021/04/24 11:07:27;;;;;;;3.65;2.65;;;14.70;72.60;;;;;;5111104;28;20548;-70
2021/04/24 11:10:28;;;;;;;4.30;2.63;;;14.70;72.90;;;;;;5092751;28;20201;-70
2021/04/24 11:12:58;;;;;;;2.95;2.20;;;14.70;72.60;;;;;;5104274;28;20199;-70
2021/04/24 11:15:26;;;;;;;7.15;2.88;;;14.70;72.60;;;;;;5111250;28;20254;-70
2021/04/24 11:17:54;;;;;;;3.22;2.30;;;14.70;71.90;;;;;;5108995;28;20231;-70
2021/04/24 11:20:50;;;;;;;3.13;2.20;;;14.70;72.90;;;;;;5100008;28;20193;-70
2021/04/24 11:23:46;;;;;;;3.17;2.50;;;14.70;73.50;;;;;;5106112;28;20257;-70
2021/04/24 11:26:14;;;;;;;6.38;1.95;;;14.70;72.50;;;;;;5090760;28;20251;-71
2021/04/24 11:29:07;;;;;;;3.72;2.53;;;14.70;72.60;;;;;;5089904;28;20197;-71
2021/04/24 11:32:00;;;;;;;4.30;2.55;;;14.70;71.10;;;;;;5090424;28;20186;-71
2021/04/24 11:34:33;;;;;;;4.75;2.92;;;14.70;71.60;;;;;;5106038;28;20197;-70
2021/04/24 11:37:28;;;;;;;3.85;2.92;;;14.70;72.10;;;;;;5110724;28;20189;-69
2021/04/24 11:40:05;;;;;;;4.28;2.92;;;14.70;71.00;;;;;;5090803;28;20232;-69
2021/04/24 11:42:33;;;;;;;5.05;2.97;;;14.60;70.80;;;;;;5092509;28;20695;-70
2021/04/24 11:44:59;;;;;;;3.63;3.33;;;14.70;71.20;;;;;;5103761;28;20216;-70
2021/04/24 11:47:50;;;;;;;4.97;3.08;;;14.60;70.50;;;;;;5107250;28;20192;-70
2021/04/24 11:50:19;;;;;;;3.50;2.75;;;14.60;71.70;;;;;;5110874;28;20764;-69
2021/04/24 11:52:55;;;;;;;5.88;3.60;;;14.60;72.70;;;;;;5100099;28;20202;-70
2021/04/24 11:55:22;;;;;;;6.57;3.35;;;14.60;72.20;;;;;;5104203;28;20215;-70
2021/04/24 11:57:49;;;;;;;6.70;3.70;;;14.60;71.20;;;;;;5098461;28;20189;-70
2021/04/24 12:00:28;;;;;;;4.88;3.80;;;14.60;70.60;;;;;;5100823;28;20205;-69
2021/04/24 12:02:55;;;;;;;4.32;3.17;;;14.50;70.60;;;;;;5093335;28;20564;-69
2021/04/24 12:05:22;;;;;;;7.55;3.58;;;14.50;71.50;;;;;;5098355;28;20228;-69
2021/04/24 12:07:48;;;;;;;5.78;3.25;;;14.50;72.10;;;;;;5101813;28;20224;-69
2021/04/24 12:10:16;;;;;;;3.63;3.33;;;14.50;72.20;;;;;;5097869;28;20188;-69
2021/04/24 12:12:45;;;;;;;5.75;3.20;;;14.50;72.10;;;;;;5094144;28;20767;-70
2021/04/24 12:15:14;;;;;;;4.32;2.88;;;14.50;71.90;;;;;;5093893;28;20189;-69
2021/04/24 12:17:48;;;;;;;5.80;3.65;;;14.50;72.30;;;;;;5093614;28;20201;-69
2021/04/24 12:20:20;;;;;;;6.60;3.25;;;14.50;72.40;;;;;;5092893;28;20198;-70
2021/04/24 12:22:47;;;;;;;10.45;3.15;;;14.50;71.70;;;;;;5094141;28;20221;-70
2021/04/24 12:25:16;;;;;;;6.28;3.00;;;14.50;71.10;;;;;;5111307;28;20253;-70
2021/04/24 12:27:44;;;;;;;3.90;3.10;;;14.50;71.40;;;;;;5097236;28;20202;-69
2021/04/24 12:30:14;;;;;;;4.93;2.72;;;14.60;71.50;;;;;;5093276;28;20205;-70
2021/04/24 12:32:42;;;;;;;3.70;2.67;;;14.50;72.10;;;;;;5098005;28;20200;-69
2021/04/24 12:35:14;;;;;;;3.00;2.40;;;14.50;72.20;;;;;;5093825;28;20197;-69
2021/04/24 12:37:43;;;;;;;2.70;2.50;;;14.60;72.80;;;;;;5092557;28;20655;-69
2021/04/24 12:40:12;;;;;;;2.72;2.53;;;14.60;73.30;;;;;;5093163;28;20201;-69
2021/04/24 12:42:39;;;;;;;3.20;2.90;;;14.60;72.70;;;;;;5094426;28;20197;-68
2021/04/24 12:45:09;;;;;;;3.83;3.45;;;14.60;72.70;;;;;;5112111;28;20212;-69
2021/04/24 12:47:36;;;;;;;4.13;3.30;;;14.60;71.40;;;;;;5105300;28;20192;-68
2021/04/24 12:50:07;;;;;;;5.05;4.15;;;14.60;71.60;;;;;;5106615;28;20836;-68
2021/04/24 12:52:42;;;;;;;5.20;3.17;;;14.60;70.30;;;;;;5099376;28;20251;-69
2021/04/24 12:55:10;;;;;;;6.78;4.03;;;14.60;71.00;;;;;;5092606;28;20193;-69
2021/04/24 12:57:36;;;;;;;4.43;2.83;;;14.60;70.60;;;;;;5093086;28;20193;-69